sensor_id;sensor_type;location;lat;lon;timestamp;P1;durP1;ratioP1;P2;durP2;ratioP2
66175;SDS011;52977;44.816;20.538;2024-02-15T00:00:29;14.75;;;8.02;;
66175;SDS011;52977;44.816;20.538;2024-02-15T00:02:56;16.35;;;8.25;;
66175;SDS011;52977;44.816;20.538;2024-02-15T00:05:24;21.77;;;8.10;;
66175;SDS011;52977;44.816;20.538;2024-02-15T00:07:50;16.77;;;7.93;;
66175;SDS011;52977;44.816;20.538;2024-02-15T00:10:16;20.45;;;8.35;;
66175;SDS011;52977;44.816;20.538;2024-02-15T00:12:42;18.25;;;8.38;;
66175;SDS011;52977;44.816;20.538;2024-02-15T00:15:09;20.65;;;8.73;;
66175;SDS011;52977;44.816;20.538;2024-02-15T00:17:36;20.67;;;9.73;;
66175;SDS011;52977;44.816;20.538;2024-02-15T00:20:03;21.98;;;11.05;;
66175;SDS011;52977;44.816;20.538;2024-02-15T00:22:49;27.80;;;12.63;;
66175;SDS011;52977;44.816;20.538;2024-02-15T00:25:15;28.90;;;12.63;;
66175;SDS011;52977;44.816;20.538;2024-02-15T00:27:42;31.17;;;12.48;;
66175;SDS011;52977;44.816;20.538;2024-02-15T00:30:08;30.23;;;13.45;;
66175;SDS011;52977;44.816;20.538;2024-02-15T00:32:34;33.38;;;15.15;;
66175;SDS011;52977;44.816;20.538;2024-02-15T00:35:03;34.22;;;14.95;;
66175;SDS011;52977;44.816;20.538;2024-02-15T00:37:33;31.55;;;14.57;;
66175;SDS011;52977;44.816;20.538;2024-02-15T00:39:59;31.60;;;14.93;;
66175;SDS011;52977;44.816;20.538;2024-02-15T00:42:25;30.95;;;14.82;;
66175;SDS011;52977;44.816;20.538;2024-02-15T00:44:51;29.02;;;14.13;;
66175;SDS011;52977;44.816;20.538;2024-02-15T00:47:18;35.47;;;14.50;;
66175;SDS011;52977;44.816;20.538;2024-02-15T00:49:46;27.20;;;14.15;;
66175;SDS011;52977;44.816;20.538;2024-02-15T00:52:13;39.05;;;14.82;;
66175;SDS011;52977;44.816;20.538;2024-02-15T00:54:39;32.03;;;13.52;;
66175;SDS011;52977;44.816;20.538;2024-02-15T00:57:05;32.30;;;13.77;;
66175;SDS011;52977;44.816;20.538;2024-02-15T00:59:32;27.13;;;12.77;;
66175;SDS011;52977;44.816;20.538;2024-02-15T01:02:01;29.15;;;13.00;;
66175;SDS011;52977;44.816;20.538;2024-02-15T01:04:28;27.75;;;12.73;;
66175;SDS011;52977;44.816;20.538;2024-02-15T01:06:54;30.42;;;13.60;;
66175;SDS011;52977;44.816;20.538;2024-02-15T01:09:23;27.50;;;13.00;;
66175;SDS011;52977;44.816;20.538;2024-02-15T01:11:50;31.00;;;13.32;;
66175;SDS011;52977;44.816;20.538;2024-02-15T01:14:16;29.40;;;14.05;;
66175;SDS011;52977;44.816;20.538;2024-02-15T01:16:42;36.40;;;14.80;;
66175;SDS011;52977;44.816;20.538;2024-02-15T01:19:09;33.63;;;14.65;;
66175;SDS011;52977;44.816;20.538;2024-02-15T01:21:35;32.90;;;14.77;;
66175;SDS011;52977;44.816;20.538;2024-02-15T01:24:02;36.15;;;15.43;;
66175;SDS011;52977;44.816;20.538;2024-02-15T01:26:32;32.13;;;15.52;;
66175;SDS011;52977;44.816;20.538;2024-02-15T01:28:58;36.13;;;16.02;;
66175;SDS011;52977;44.816;20.538;2024-02-15T01:31:25;44.00;;;17.73;;
66175;SDS011;52977;44.816;20.538;2024-02-15T01:33:51;39.65;;;17.25;;
66175;SDS011;52977;44.816;20.538;2024-02-15T01:36:17;38.13;;;16.83;;
66175;SDS011;52977;44.816;20.538;2024-02-15T01:38:44;36.92;;;16.60;;
66175;SDS011;52977;44.816;20.538;2024-02-15T01:41:11;38.92;;;18.60;;
66175;SDS011;52977;44.816;20.538;2024-02-15T01:43:37;42.83;;;18.92;;
66175;SDS011;52977;44.816;20.538;2024-02-15T01:46:09;44.38;;;18.50;;
66175;SDS011;52977;44.816;20.538;2024-02-15T01:48:37;41.22;;;18.60;;
66175;SDS011;52977;44.816;20.538;2024-02-15T01:51:06;42.85;;;18.48;;
66175;SDS011;52977;44.816;20.538;2024-02-15T01:53:33;35.10;;;16.88;;
66175;SDS011;52977;44.816;20.538;2024-02-15T01:56:00;35.60;;;16.45;;
66175;SDS011;52977;44.816;20.538;2024-02-15T01:58:26;32.60;;;15.52;;
66175;SDS011;52977;44.816;20.538;2024-02-15T02:00:56;30.77;;;14.60;;
66175;SDS011;52977;44.816;20.538;2024-02-15T02:03:22;33.97;;;14.07;;
66175;SDS011;52977;44.816;20.538;2024-02-15T02:05:49;31.40;;;12.55;;
66175;SDS011;52977;44.816;20.538;2024-02-15T02:08:15;30.30;;;12.60;;
66175;SDS011;52977;44.816;20.538;2024-02-15T02:10:41;26.65;;;12.38;;
66175;SDS011;52977;44.816;20.538;2024-02-15T02:13:08;30.02;;;14.13;;
66175;SDS011;52977;44.816;20.538;2024-02-15T02:15:35;32.15;;;13.63;;
66175;SDS011;52977;44.816;20.538;2024-02-15T02:18:03;32.00;;;14.00;;
66175;SDS011;52977;44.816;20.538;2024-02-15T02:23:03;31.65;;;13.77;;
66175;SDS011;52977;44.816;20.538;2024-02-15T02:25:33;30.30;;;14.30;;
66175;SDS011;52977;44.816;20.538;2024-02-15T02:28:00;34.72;;;13.65;;
66175;SDS011;52977;44.816;20.538;2024-02-15T02:30:27;29.02;;;12.65;;
66175;SDS011;52977;44.816;20.538;2024-02-15T02:32:56;31.27;;;12.80;;
66175;SDS011;52977;44.816;20.538;2024-02-15T02:35:41;28.60;;;12.13;;
66175;SDS011;52977;44.816;20.538;2024-02-15T02:38:11;28.55;;;11.98;;
66175;SDS011;52977;44.816;20.538;2024-02-15T02:40:40;27.08;;;11.48;;
66175;SDS011;52977;44.816;20.538;2024-02-15T02:43:06;27.02;;;12.02;;
66175;SDS011;52977;44.816;20.538;2024-02-15T02:45:33;24.85;;;11.27;;
66175;SDS011;52977;44.816;20.538;2024-02-15T02:47:59;27.90;;;11.65;;
66175;SDS011;52977;44.816;20.538;2024-02-15T02:50:26;31.50;;;12.05;;
66175;SDS011;52977;44.816;20.538;2024-02-15T02:52:52;25.63;;;11.00;;
66175;SDS011;52977;44.816;20.538;2024-02-15T02:55:18;24.08;;;11.32;;
66175;SDS011;52977;44.816;20.538;2024-02-15T02:57:44;27.10;;;11.98;;
66175;SDS011;52977;44.816;20.538;2024-02-15T03:00:11;28.13;;;11.55;;
66175;SDS011;52977;44.816;20.538;2024-02-15T03:02:45;27.27;;;11.85;;
66175;SDS011;52977;44.816;20.538;2024-02-15T03:05:12;25.30;;;12.05;;
66175;SDS011;52977;44.816;20.538;2024-02-15T03:07:41;24.75;;;10.93;;
66175;SDS011;52977;44.816;20.538;2024-02-15T03:10:08;23.88;;;11.50;;
66175;SDS011;52977;44.816;20.538;2024-02-15T03:15:06;26.67;;;12.00;;
66175;SDS011;52977;44.816;20.538;2024-02-15T03:17:37;29.92;;;12.50;;
66175;SDS011;52977;44.816;20.538;2024-02-15T03:20:08;26.85;;;11.75;;
66175;SDS011;52977;44.816;20.538;2024-02-15T03:22:55;27.80;;;13.65;;
66175;SDS011;52977;44.816;20.538;2024-02-15T03:25:23;28.92;;;12.40;;
66175;SDS011;52977;44.816;20.538;2024-02-15T03:27:51;25.35;;;11.88;;
66175;SDS011;52977;44.816;20.538;2024-02-15T03:30:19;25.30;;;10.88;;
66175;SDS011;52977;44.816;20.538;2024-02-15T03:32:46;28.08;;;12.43;;
66175;SDS011;52977;44.816;20.538;2024-02-15T03:35:22;27.52;;;11.57;;
66175;SDS011;52977;44.816;20.538;2024-02-15T03:37:50;25.00;;;11.68;;
66175;SDS011;52977;44.816;20.538;2024-02-15T03:40:17;26.42;;;11.13;;
66175;SDS011;52977;44.816;20.538;2024-02-15T03:42:46;25.90;;;11.40;;
66175;SDS011;52977;44.816;20.538;2024-02-15T03:45:12;25.42;;;11.35;;
66175;SDS011;52977;44.816;20.538;2024-02-15T03:47:39;23.83;;;10.27;;
66175;SDS011;52977;44.816;20.538;2024-02-15T03:50:06;24.50;;;10.77;;
66175;SDS011;52977;44.816;20.538;2024-02-15T03:52:36;21.08;;;10.20;;
66175;SDS011;52977;44.816;20.538;2024-02-15T03:55:03;20.85;;;10.18;;
66175;SDS011;52977;44.816;20.538;2024-02-15T03:57:30;20.70;;;9.75;;
66175;SDS011;52977;44.816;20.538;2024-02-15T03:59:56;21.95;;;10.38;;
66175;SDS011;52977;44.816;20.538;2024-02-15T04:02:23;20.27;;;9.35;;
66175;SDS011;52977;44.816;20.538;2024-02-15T04:04:55;22.85;;;8.52;;
66175;SDS011;52977;44.816;20.538;2024-02-15T04:07:22;22.23;;;9.88;;
66175;SDS011;52977;44.816;20.538;2024-02-15T04:09:50;21.23;;;9.38;;
66175;SDS011;52977;44.816;20.538;2024-02-15T04:12:17;19.55;;;9.15;;
66175;SDS011;52977;44.816;20.538;2024-02-15T04:14:43;20.98;;;9.23;;
66175;SDS011;52977;44.816;20.538;2024-02-15T04:17:29;17.90;;;8.75;;
66175;SDS011;52977;44.816;20.538;2024-02-15T04:19:58;18.23;;;8.63;;
66175;SDS011;52977;44.816;20.538;2024-02-15T04:22:24;21.60;;;9.30;;
66175;SDS011;52977;44.816;20.538;2024-02-15T04:24:51;19.50;;;9.30;;
66175;SDS011;52977;44.816;20.538;2024-02-15T04:27:17;21.45;;;9.35;;
66175;SDS011;52977;44.816;20.538;2024-02-15T04:29:46;19.92;;;9.40;;
66175;SDS011;52977;44.816;20.538;2024-02-15T04:32:13;22.27;;;10.05;;
66175;SDS011;52977;44.816;20.538;2024-02-15T04:34:39;18.10;;;9.60;;
66175;SDS011;52977;44.816;20.538;2024-02-15T04:37:06;22.55;;;10.20;;
66175;SDS011;52977;44.816;20.538;2024-02-15T04:39:33;19.50;;;8.82;;
66175;SDS011;52977;44.816;20.538;2024-02-15T04:42:02;22.75;;;9.30;;
66175;SDS011;52977;44.816;20.538;2024-02-15T04:44:32;20.38;;;9.32;;
66175;SDS011;52977;44.816;20.538;2024-02-15T04:47:00;17.17;;;8.63;;
66175;SDS011;52977;44.816;20.538;2024-02-15T04:49:28;19.83;;;9.32;;
66175;SDS011;52977;44.816;20.538;2024-02-15T04:51:54;19.95;;;8.85;;
66175;SDS011;52977;44.816;20.538;2024-02-15T04:54:20;18.60;;;9.07;;
66175;SDS011;52977;44.816;20.538;2024-02-15T04:56:48;19.50;;;9.13;;
66175;SDS011;52977;44.816;20.538;2024-02-15T04:59:16;19.40;;;9.30;;
66175;SDS011;52977;44.816;20.538;2024-02-15T05:01:43;17.45;;;8.50;;
66175;SDS011;52977;44.816;20.538;2024-02-15T05:04:10;19.48;;;9.18;;
66175;SDS011;52977;44.816;20.538;2024-02-15T05:06:37;19.58;;;8.90;;
66175;SDS011;52977;44.816;20.538;2024-02-15T05:09:04;16.92;;;8.18;;
66175;SDS011;52977;44.816;20.538;2024-02-15T05:11:39;20.60;;;8.27;;
66175;SDS011;52977;44.816;20.538;2024-02-15T05:14:07;21.70;;;9.80;;
66175;SDS011;52977;44.816;20.538;2024-02-15T05:16:34;22.42;;;9.52;;
66175;SDS011;52977;44.816;20.538;2024-02-15T05:19:00;16.80;;;8.32;;
66175;SDS011;52977;44.816;20.538;2024-02-15T05:21:28;19.15;;;8.60;;
66175;SDS011;52977;44.816;20.538;2024-02-15T05:23:56;24.27;;;9.65;;
66175;SDS011;52977;44.816;20.538;2024-02-15T05:26:23;19.40;;;8.77;;
66175;SDS011;52977;44.816;20.538;2024-02-15T05:28:49;20.40;;;9.32;;
66175;SDS011;52977;44.816;20.538;2024-02-15T05:31:19;22.40;;;9.10;;
66175;SDS011;52977;44.816;20.538;2024-02-15T05:33:46;19.73;;;8.85;;
66175;SDS011;52977;44.816;20.538;2024-02-15T05:36:14;24.58;;;9.32;;
66175;SDS011;52977;44.816;20.538;2024-02-15T05:38:41;20.58;;;9.50;;
66175;SDS011;52977;44.816;20.538;2024-02-15T05:41:10;22.77;;;9.75;;
66175;SDS011;52977;44.816;20.538;2024-02-15T05:43:39;25.10;;;10.60;;
66175;SDS011;52977;44.816;20.538;2024-02-15T05:46:07;22.50;;;10.45;;
66175;SDS011;52977;44.816;20.538;2024-02-15T05:48:35;20.92;;;11.52;;
66175;SDS011;52977;44.816;20.538;2024-02-15T05:51:03;25.33;;;11.55;;
66175;SDS011;52977;44.816;20.538;2024-02-15T05:53:30;22.83;;;10.63;;
66175;SDS011;52977;44.816;20.538;2024-02-15T05:55:58;22.58;;;9.68;;
66175;SDS011;52977;44.816;20.538;2024-02-15T05:58:24;22.60;;;10.98;;
66175;SDS011;52977;44.816;20.538;2024-02-15T06:00:50;23.77;;;10.88;;
66175;SDS011;52977;44.816;20.538;2024-02-15T06:03:17;21.40;;;10.18;;
66175;SDS011;52977;44.816;20.538;2024-02-15T06:05:42;23.38;;;9.68;;
66175;SDS011;52977;44.816;20.538;2024-02-15T06:08:09;18.85;;;9.77;;
66175;SDS011;52977;44.816;20.538;2024-02-15T06:10:37;24.02;;;9.73;;
66175;SDS011;52977;44.816;20.538;2024-02-15T06:13:04;20.77;;;9.55;;
66175;SDS011;52977;44.816;20.538;2024-02-15T06:15:30;21.58;;;10.38;;
66175;SDS011;52977;44.816;20.538;2024-02-15T06:17:56;28.08;;;11.80;;
66175;SDS011;52977;44.816;20.538;2024-02-15T06:20:22;24.40;;;10.20;;
66175;SDS011;52977;44.816;20.538;2024-02-15T06:22:48;22.65;;;10.35;;
66175;SDS011;52977;44.816;20.538;2024-02-15T06:25:15;23.08;;;10.88;;
66175;SDS011;52977;44.816;20.538;2024-02-15T06:27:45;27.17;;;12.73;;
66175;SDS011;52977;44.816;20.538;2024-02-15T06:30:12;21.98;;;10.95;;
66175;SDS011;52977;44.816;20.538;2024-02-15T06:32:56;30.73;;;12.70;;
66175;SDS011;52977;44.816;20.538;2024-02-15T06:35:41;24.85;;;11.98;;
66175;SDS011;52977;44.816;20.538;2024-02-15T06:38:25;25.58;;;12.15;;
66175;SDS011;52977;44.816;20.538;2024-02-15T06:41:10;30.05;;;13.65;;
66175;SDS011;52977;44.816;20.538;2024-02-15T06:43:37;26.20;;;13.73;;
66175;SDS011;52977;44.816;20.538;2024-02-15T06:46:05;24.05;;;10.93;;
66175;SDS011;52977;44.816;20.538;2024-02-15T06:48:32;24.13;;;10.25;;
66175;SDS011;52977;44.816;20.538;2024-02-15T06:50:58;27.70;;;12.35;;
66175;SDS011;52977;44.816;20.538;2024-02-15T06:53:24;23.08;;;11.55;;
66175;SDS011;52977;44.816;20.538;2024-02-15T06:55:51;25.42;;;11.25;;
66175;SDS011;52977;44.816;20.538;2024-02-15T06:58:18;26.45;;;11.18;;
66175;SDS011;52977;44.816;20.538;2024-02-15T07:00:43;24.08;;;11.45;;
66175;SDS011;52977;44.816;20.538;2024-02-15T07:03:09;24.38;;;10.85;;
66175;SDS011;52977;44.816;20.538;2024-02-15T07:05:36;29.85;;;12.55;;
66175;SDS011;52977;44.816;20.538;2024-02-15T07:08:07;30.85;;;12.93;;
66175;SDS011;52977;44.816;20.538;2024-02-15T07:10:33;28.73;;;12.00;;
66175;SDS011;52977;44.816;20.538;2024-02-15T07:12:58;21.42;;;11.30;;
66175;SDS011;52977;44.816;20.538;2024-02-15T07:15:25;21.40;;;10.02;;
66175;SDS011;52977;44.816;20.538;2024-02-15T07:17:51;24.25;;;10.60;;
66175;SDS011;52977;44.816;20.538;2024-02-15T07:20:19;27.90;;;11.18;;
66175;SDS011;52977;44.816;20.538;2024-02-15T07:22:48;23.95;;;10.48;;
66175;SDS011;52977;44.816;20.538;2024-02-15T07:25:14;23.08;;;10.93;;
66175;SDS011;52977;44.816;20.538;2024-02-15T07:27:40;25.00;;;10.90;;
66175;SDS011;52977;44.816;20.538;2024-02-15T07:30:07;23.92;;;11.48;;
66175;SDS011;52977;44.816;20.538;2024-02-15T07:32:34;22.38;;;11.07;;
66175;SDS011;52977;44.816;20.538;2024-02-15T07:35:01;20.73;;;10.80;;
66175;SDS011;52977;44.816;20.538;2024-02-15T07:37:27;24.42;;;10.73;;
66175;SDS011;52977;44.816;20.538;2024-02-15T07:39:55;23.45;;;11.50;;
66175;SDS011;52977;44.816;20.538;2024-02-15T07:42:21;22.90;;;11.85;;
66175;SDS011;52977;44.816;20.538;2024-02-15T07:44:51;25.50;;;11.35;;
66175;SDS011;52977;44.816;20.538;2024-02-15T07:47:20;20.52;;;10.38;;
66175;SDS011;52977;44.816;20.538;2024-02-15T07:49:50;22.88;;;9.43;;
66175;SDS011;52977;44.816;20.538;2024-02-15T07:52:16;22.70;;;10.48;;
66175;SDS011;52977;44.816;20.538;2024-02-15T07:54:43;21.98;;;9.75;;
66175;SDS011;52977;44.816;20.538;2024-02-15T07:57:09;27.63;;;12.75;;
66175;SDS011;52977;44.816;20.538;2024-02-15T07:59:36;33.63;;;15.57;;
66175;SDS011;52977;44.816;20.538;2024-02-15T08:02:05;33.55;;;16.95;;
66175;SDS011;52977;44.816;20.538;2024-02-15T08:04:31;43.42;;;19.50;;
66175;SDS011;52977;44.816;20.538;2024-02-15T08:06:57;38.80;;;17.70;;
66175;SDS011;52977;44.816;20.538;2024-02-15T08:09:22;34.75;;;16.58;;
66175;SDS011;52977;44.816;20.538;2024-02-15T08:11:52;35.83;;;16.63;;
66175;SDS011;52977;44.816;20.538;2024-02-15T08:14:18;32.67;;;15.85;;
66175;SDS011;52977;44.816;20.538;2024-02-15T08:16:46;34.80;;;15.60;;
66175;SDS011;52977;44.816;20.538;2024-02-15T08:19:12;39.53;;;15.48;;
66175;SDS011;52977;44.816;20.538;2024-02-15T08:21:37;31.75;;;14.77;;
66175;SDS011;52977;44.816;20.538;2024-02-15T08:24:04;28.88;;;13.65;;
66175;SDS011;52977;44.816;20.538;2024-02-15T08:26:37;31.23;;;14.27;;
66175;SDS011;52977;44.816;20.538;2024-02-15T08:29:04;27.77;;;14.13;;
66175;SDS011;52977;44.816;20.538;2024-02-15T08:31:34;31.63;;;14.75;;
66175;SDS011;52977;44.816;20.538;2024-02-15T08:34:01;26.70;;;11.93;;
66175;SDS011;52977;44.816;20.538;2024-02-15T08:36:29;28.45;;;14.15;;
66175;SDS011;52977;44.816;20.538;2024-02-15T08:38:55;35.35;;;15.73;;
66175;SDS011;52977;44.816;20.538;2024-02-15T08:41:21;34.30;;;15.95;;
66175;SDS011;52977;44.816;20.538;2024-02-15T08:43:52;35.90;;;16.23;;
66175;SDS011;52977;44.816;20.538;2024-02-15T08:46:18;38.63;;;15.95;;
66175;SDS011;52977;44.816;20.538;2024-02-15T08:48:49;30.20;;;14.13;;
66175;SDS011;52977;44.816;20.538;2024-02-15T08:51:15;29.33;;;14.00;;
66175;SDS011;52977;44.816;20.538;2024-02-15T08:53:43;32.38;;;14.70;;
66175;SDS011;52977;44.816;20.538;2024-02-15T08:56:09;31.70;;;14.32;;
66175;SDS011;52977;44.816;20.538;2024-02-15T08:58:36;31.83;;;14.35;;
66175;SDS011;52977;44.816;20.538;2024-02-15T09:01:04;29.52;;;15.02;;
66175;SDS011;52977;44.816;20.538;2024-02-15T09:03:30;32.95;;;15.50;;
66175;SDS011;52977;44.816;20.538;2024-02-15T09:05:56;27.15;;;13.88;;
66175;SDS011;52977;44.816;20.538;2024-02-15T09:08:23;30.77;;;14.10;;
66175;SDS011;52977;44.816;20.538;2024-02-15T09:10:49;30.23;;;13.63;;
66175;SDS011;52977;44.816;20.538;2024-02-15T09:13:17;28.80;;;13.98;;
66175;SDS011;52977;44.816;20.538;2024-02-15T09:15:43;28.92;;;13.18;;
66175;SDS011;52977;44.816;20.538;2024-02-15T09:18:10;30.83;;;13.40;;
66175;SDS011;52977;44.816;20.538;2024-02-15T09:20:36;32.90;;;12.68;;
66175;SDS011;52977;44.816;20.538;2024-02-15T09:23:05;20.40;;;10.90;;
66175;SDS011;52977;44.816;20.538;2024-02-15T09:25:37;21.38;;;10.55;;
66175;SDS011;52977;44.816;20.538;2024-02-15T09:28:03;21.52;;;11.15;;
66175;SDS011;52977;44.816;20.538;2024-02-15T09:30:29;21.05;;;9.80;;
66175;SDS011;52977;44.816;20.538;2024-02-15T09:32:56;21.40;;;9.55;;
66175;SDS011;52977;44.816;20.538;2024-02-15T09:35:22;18.80;;;8.40;;
66175;SDS011;52977;44.816;20.538;2024-02-15T09:37:49;21.88;;;10.02;;
66175;SDS011;52977;44.816;20.538;2024-02-15T09:40:15;24.35;;;10.95;;
66175;SDS011;52977;44.816;20.538;2024-02-15T09:42:42;27.73;;;10.93;;
66175;SDS011;52977;44.816;20.538;2024-02-15T09:45:12;20.08;;;9.35;;
66175;SDS011;52977;44.816;20.538;2024-02-15T09:47:40;14.63;;;7.05;;
66175;SDS011;52977;44.816;20.538;2024-02-15T09:50:07;15.50;;;7.22;;
66175;SDS011;52977;44.816;20.538;2024-02-15T09:55:07;16.73;;;7.47;;
66175;SDS011;52977;44.816;20.538;2024-02-15T09:57:39;19.35;;;8.75;;
66175;SDS011;52977;44.816;20.538;2024-02-15T10:00:07;18.85;;;8.70;;
66175;SDS011;52977;44.816;20.538;2024-02-15T10:02:36;18.05;;;9.25;;
66175;SDS011;52977;44.816;20.538;2024-02-15T10:05:05;18.25;;;7.75;;
66175;SDS011;52977;44.816;20.538;2024-02-15T10:07:32;16.10;;;7.70;;
66175;SDS011;52977;44.816;20.538;2024-02-15T10:09:57;18.40;;;8.13;;
66175;SDS011;52977;44.816;20.538;2024-02-15T10:12:42;19.35;;;9.35;;
66175;SDS011;52977;44.816;20.538;2024-02-15T10:15:08;22.58;;;9.48;;
66175;SDS011;52977;44.816;20.538;2024-02-15T10:17:36;21.00;;;9.65;;
66175;SDS011;52977;44.816;20.538;2024-02-15T10:20:03;20.83;;;9.30;;
66175;SDS011;52977;44.816;20.538;2024-02-15T10:22:30;24.15;;;10.65;;
66175;SDS011;52977;44.816;20.538;2024-02-15T10:25:12;19.85;;;10.07;;
66175;SDS011;52977;44.816;20.538;2024-02-15T10:27:42;23.38;;;9.48;;
66175;SDS011;52977;44.816;20.538;2024-02-15T10:30:18;23.13;;;9.25;;
66175;SDS011;52977;44.816;20.538;2024-02-15T10:32:45;28.70;;;9.60;;
66175;SDS011;52977;44.816;20.538;2024-02-15T10:35:20;20.92;;;9.68;;
66175;SDS011;52977;44.816;20.538;2024-02-15T10:37:50;22.92;;;9.45;;
66175;SDS011;52977;44.816;20.538;2024-02-15T10:40:17;24.30;;;9.82;;
66175;SDS011;52977;44.816;20.538;2024-02-15T10:42:46;22.45;;;9.07;;
66175;SDS011;52977;44.816;20.538;2024-02-15T10:45:13;17.80;;;8.80;;
66175;SDS011;52977;44.816;20.538;2024-02-15T10:47:44;22.52;;;9.95;;
66175;SDS011;52977;44.816;20.538;2024-02-15T10:50:18;19.80;;;8.85;;
66175;SDS011;52977;44.816;20.538;2024-02-15T10:52:54;16.73;;;8.23;;
66175;SDS011;52977;44.816;20.538;2024-02-15T10:55:26;16.42;;;7.75;;
66175;SDS011;52977;44.816;20.538;2024-02-15T10:58:00;18.90;;;7.35;;
66175;SDS011;52977;44.816;20.538;2024-02-15T11:00:32;14.90;;;6.32;;
66175;SDS011;52977;44.816;20.538;2024-02-15T11:03:04;14.73;;;6.55;;
66175;SDS011;52977;44.816;20.538;2024-02-15T11:05:34;12.30;;;6.70;;
66175;SDS011;52977;44.816;20.538;2024-02-15T11:08:05;13.93;;;7.50;;
66175;SDS011;52977;44.816;20.538;2024-02-15T11:10:34;16.75;;;7.85;;
66175;SDS011;52977;44.816;20.538;2024-02-15T11:13:02;21.45;;;9.57;;
66175;SDS011;52977;44.816;20.538;2024-02-15T11:18:02;20.65;;;9.23;;
66175;SDS011;52977;44.816;20.538;2024-02-15T11:23:00;23.33;;;8.85;;
66175;SDS011;52977;44.816;20.538;2024-02-15T11:25:33;19.77;;;9.38;;
66175;SDS011;52977;44.816;20.538;2024-02-15T11:30:55;20.70;;;8.98;;
66175;SDS011;52977;44.816;20.538;2024-02-15T11:33:29;21.30;;;9.00;;
66175;SDS011;52977;44.816;20.538;2024-02-15T11:36:15;18.52;;;9.38;;
66175;SDS011;52977;44.816;20.538;2024-02-15T11:38:43;17.60;;;9.40;;
66175;SDS011;52977;44.816;20.538;2024-02-15T11:41:09;18.70;;;8.68;;
66175;SDS011;52977;44.816;20.538;2024-02-15T11:46:26;19.63;;;9.82;;
66175;SDS011;52977;44.816;20.538;2024-02-15T11:49:14;19.73;;;9.95;;
66175;SDS011;52977;44.816;20.538;2024-02-15T11:51:44;21.88;;;9.70;;
66175;SDS011;52977;44.816;20.538;2024-02-15T11:54:13;19.00;;;8.68;;
66175;SDS011;52977;44.816;20.538;2024-02-15T11:59:20;21.42;;;8.77;;
66175;SDS011;52977;44.816;20.538;2024-02-15T12:01:58;18.60;;;9.55;;
66175;SDS011;52977;44.816;20.538;2024-02-15T12:04:42;20.05;;;8.93;;
66175;SDS011;52977;44.816;20.538;2024-02-15T12:07:28;18.00;;;8.18;;
66175;SDS011;52977;44.816;20.538;2024-02-15T12:10:18;20.35;;;9.30;;
66175;SDS011;52977;44.816;20.538;2024-02-15T12:13:03;18.50;;;8.85;;
66175;SDS011;52977;44.816;20.538;2024-02-15T12:15:58;20.38;;;8.73;;
66175;SDS011;52977;44.816;20.538;2024-02-15T12:18:43;15.35;;;7.22;;
66175;SDS011;52977;44.816;20.538;2024-02-15T12:21:11;23.05;;;8.20;;
66175;SDS011;52977;44.816;20.538;2024-02-15T12:23:43;17.90;;;6.90;;
66175;SDS011;52977;44.816;20.538;2024-02-15T12:26:10;22.08;;;7.68;;
66175;SDS011;52977;44.816;20.538;2024-02-15T12:28:41;13.05;;;6.43;;
66175;SDS011;52977;44.816;20.538;2024-02-15T12:31:08;12.90;;;6.68;;
66175;SDS011;52977;44.816;20.538;2024-02-15T12:33:35;15.82;;;6.95;;
66175;SDS011;52977;44.816;20.538;2024-02-15T12:36:03;17.55;;;6.60;;
66175;SDS011;52977;44.816;20.538;2024-02-15T12:38:33;14.68;;;7.00;;
66175;SDS011;52977;44.816;20.538;2024-02-15T12:41:04;13.60;;;6.50;;
66175;SDS011;52977;44.816;20.538;2024-02-15T12:43:44;15.15;;;5.90;;
66175;SDS011;52977;44.816;20.538;2024-02-15T12:46:10;15.57;;;6.68;;
66175;SDS011;52977;44.816;20.538;2024-02-15T12:48:37;11.70;;;5.70;;
66175;SDS011;52977;44.816;20.538;2024-02-15T12:51:12;15.57;;;5.97;;
66175;SDS011;52977;44.816;20.538;2024-02-15T12:53:42;17.08;;;6.15;;
66175;SDS011;52977;44.816;20.538;2024-02-15T12:56:09;11.15;;;5.15;;
66175;SDS011;52977;44.816;20.538;2024-02-15T12:58:36;11.05;;;5.05;;
66175;SDS011;52977;44.816;20.538;2024-02-15T13:01:02;12.05;;;5.97;;
66175;SDS011;52977;44.816;20.538;2024-02-15T13:03:29;19.23;;;5.57;;
66175;SDS011;52977;44.816;20.538;2024-02-15T13:05:55;15.88;;;4.97;;
66175;SDS011;52977;44.816;20.538;2024-02-15T13:08:23;10.93;;;4.35;;
66175;SDS011;52977;44.816;20.538;2024-02-15T13:10:49;8.43;;;4.05;;
66175;SDS011;52977;44.816;20.538;2024-02-15T13:13:17;9.43;;;3.45;;
66175;SDS011;52977;44.816;20.538;2024-02-15T13:15:43;9.48;;;3.78;;
66175;SDS011;52977;44.816;20.538;2024-02-15T13:18:09;6.90;;;3.83;;
66175;SDS011;52977;44.816;20.538;2024-02-15T13:20:37;10.60;;;3.80;;
66175;SDS011;52977;44.816;20.538;2024-02-15T13:23:07;9.05;;;4.75;;
66175;SDS011;52977;44.816;20.538;2024-02-15T13:25:35;8.90;;;4.07;;
66175;SDS011;52977;44.816;20.538;2024-02-15T13:28:03;15.60;;;4.75;;
66175;SDS011;52977;44.816;20.538;2024-02-15T13:30:30;11.65;;;4.30;;
66175;SDS011;52977;44.816;20.538;2024-02-15T13:32:56;10.95;;;5.25;;
66175;SDS011;52977;44.816;20.538;2024-02-15T13:35:22;15.18;;;5.28;;
66175;SDS011;52977;44.816;20.538;2024-02-15T13:37:50;10.57;;;5.05;;
66175;SDS011;52977;44.816;20.538;2024-02-15T13:40:21;10.25;;;5.15;;
66175;SDS011;52977;44.816;20.538;2024-02-15T13:42:51;11.88;;;4.95;;
66175;SDS011;52977;44.816;20.538;2024-02-15T13:45:22;10.75;;;4.43;;
66175;SDS011;52977;44.816;20.538;2024-02-15T13:47:50;9.20;;;4.50;;
66175;SDS011;52977;44.816;20.538;2024-02-15T13:50:17;12.10;;;5.05;;
66175;SDS011;52977;44.816;20.538;2024-02-15T13:52:43;13.77;;;4.95;;
66175;SDS011;52977;44.816;20.538;2024-02-15T13:55:11;11.52;;;4.85;;
66175;SDS011;52977;44.816;20.538;2024-02-15T13:57:41;11.13;;;5.22;;
66175;SDS011;52977;44.816;20.538;2024-02-15T14:00:17;9.13;;;4.82;;
66175;SDS011;52977;44.816;20.538;2024-02-15T14:03:07;17.00;;;5.15;;
66175;SDS011;52977;44.816;20.538;2024-02-15T14:05:53;14.18;;;6.03;;
66175;SDS011;52977;44.816;20.538;2024-02-15T14:08:39;14.88;;;6.57;;
66175;SDS011;52977;44.816;20.538;2024-02-15T14:11:24;11.35;;;5.22;;
66175;SDS011;52977;44.816;20.538;2024-02-15T14:14:10;11.15;;;5.18;;
66175;SDS011;52977;44.816;20.538;2024-02-15T14:16:55;11.88;;;5.22;;
66175;SDS011;52977;44.816;20.538;2024-02-15T14:19:21;11.45;;;5.10;;
66175;SDS011;52977;44.816;20.538;2024-02-15T14:22:07;11.68;;;5.32;;
66175;SDS011;52977;44.816;20.538;2024-02-15T14:24:52;9.15;;;4.60;;
66175;SDS011;52977;44.816;20.538;2024-02-15T14:27:41;12.40;;;4.80;;
66175;SDS011;52977;44.816;20.538;2024-02-15T14:30:26;11.98;;;5.43;;
66175;SDS011;52977;44.816;20.538;2024-02-15T14:33:11;11.52;;;5.35;;
66175;SDS011;52977;44.816;20.538;2024-02-15T14:35:57;8.13;;;4.68;;
66175;SDS011;52977;44.816;20.538;2024-02-15T14:38:43;9.60;;;4.45;;
66175;SDS011;52977;44.816;20.538;2024-02-15T14:41:28;11.00;;;4.80;;
66175;SDS011;52977;44.816;20.538;2024-02-15T14:44:14;11.20;;;4.53;;
66175;SDS011;52977;44.816;20.538;2024-02-15T14:47:00;9.60;;;4.65;;
66175;SDS011;52977;44.816;20.538;2024-02-15T14:49:45;10.45;;;4.65;;